Time;durP1;ratioP1;P1;durP2;ratioP2;P2;SDS_P1;SDS_P2;PMS_P1;PMS_P2;Temp;Humidity;BMP_temperature;BMP_pressure;BME280_temperature;BME280_humidity;BME280_pressure;Samples;Min_cycle;Max_cycle;Signal;HPM_P1;HPM_P2
2022/01/23 00:00:22;;;;;;;14.03;9.60;;;;;;;;;;2057950;28;20170;-59
2022/01/23 00:01:24;;;;;;;12.13;10.40;;;;;;;;;;2056769;28;20286;-59
2022/01/23 00:02:27;;;;;;;14.13;11.30;;;;;;;;;;2058236;28;20544;-54
2022/01/23 00:03:27;;;;;;;16.48;10.52;;;;;;;;;;2058911;28;20174;-58
2022/01/23 00:04:27;;;;;;;11.93;10.23;;;;;;;;;;2058245;28;20623;-58
2022/01/23 00:05:35;;;;;;;12.63;10.63;;;;;;;;;;2056703;28;20690;-54
2022/01/23 00:06:35;;;;;;;13.52;10.75;;;;;;;;;;2058819;28;20214;-59
2022/01/23 00:07:38;;;;;;;12.65;11.45;;;;;;;;;;2058752;28;20230;-57
2022/01/23 00:08:38;;;;;;;12.27;10.87;;;;;;;;;;2058415;28;20654;-59
2022/01/23 00:09:39;;;;;;;12.20;10.90;;;;;;;;;;2059143;28;20261;-57
2022/01/23 00:10:39;;;;;;;16.37;12.17;;;;;;;;;;2059541;28;20185;-56
2022/01/23 00:11:47;;;;;;;15.57;11.65;;;;;;;;;;2059883;28;20220;-58
2022/01/23 00:12:52;;;;;;;12.93;10.63;;;;;;;;;;2055560;28;20187;-60
2022/01/23 00:17:36;;;;;;;16.13;11.70;;;;;;;;;;2057455;28;20194;-55
2022/01/23 00:18:36;;;;;;;16.80;12.37;;;;;;;;;;2052878;28;20171;-59
2022/01/23 00:19:36;;;;;;;13.93;12.27;;;;;;;;;;2057232;28;20182;-60
2022/01/23 00:20:37;;;;;;;13.82;12.02;;;;;;;;;;2052490;28;20318;-60
2022/01/23 00:21:39;;;;;;;14.10;12.53;;;;;;;;;;2057734;28;20167;-60
2022/01/23 00:22:47;;;;;;;18.53;13.03;;;;;;;;;;2057363;28;20233;-58
2022/01/23 00:31:19;;;;;;;19.50;14.68;;;;;;;;;;2057779;28;20857;-58
2022/01/23 00:32:19;;;;;;;17.40;13.73;;;;;;;;;;2057298;28;20190;-58
2022/01/23 00:33:20;;;;;;;16.85;13.10;;;;;;;;;;2056995;28;20186;-60
2022/01/23 00:34:20;;;;;;;15.77;12.15;;;;;;;;;;2057200;28;20174;-56
2022/01/23 00:35:20;;;;;;;20.77;15.77;;;;;;;;;;2057942;28;20162;-59
2022/01/23 00:36:21;;;;;;;15.30;13.07;;;;;;;;;;2056625;28;20169;-60
2022/01/23 00:37:22;;;;;;;16.90;14.20;;;;;;;;;;2055878;28;20640;-59
2022/01/23 00:38:22;;;;;;;16.67;15.00;;;;;;;;;;2056772;28;20206;-59
2022/01/23 00:39:22;;;;;;;18.33;13.80;;;;;;;;;;2057043;28;20638;-59
2022/01/23 00:40:24;;;;;;;16.90;15.03;;;;;;;;;;2057237;28;20258;-59
2022/01/23 00:41:25;;;;;;;16.37;13.80;;;;;;;;;;2055168;28;20174;-57
2022/01/23 00:42:27;;;;;;;15.75;13.57;;;;;;;;;;2056727;28;20175;-59
2022/01/23 00:43:30;;;;;;;15.10;13.50;;;;;;;;;;2058033;28;20225;-58
2022/01/23 00:44:31;;;;;;;20.53;14.60;;;;;;;;;;2057343;28;20174;-59
2022/01/23 00:45:34;;;;;;;17.67;12.80;;;;;;;;;;2057015;28;20650;-60
2022/01/23 00:46:38;;;;;;;19.00;13.37;;;;;;;;;;2055930;28;20225;-60
2022/01/23 00:47:38;;;;;;;16.83;13.23;;;;;;;;;;2056278;28;20205;-60
2022/01/23 00:48:50;;;;;;;14.60;12.30;;;;;;;;;;2057362;28;20162;-60
2022/01/23 00:49:50;;;;;;;14.57;12.27;;;;;;;;;;2056991;28;20219;-60
2022/01/23 00:50:50;;;;;;;16.25;14.05;;;;;;;;;;2056752;28;20174;-60
2022/01/23 00:51:51;;;;;;;15.07;12.03;;;;;;;;;;2054668;28;20194;-59
2022/01/23 00:52:52;;;;;;;17.08;12.77;;;;;;;;;;2057040;28;20181;-58
2022/01/23 00:53:52;;;;;;;14.88;13.23;;;;;;;;;;2057674;28;20178;-59
2022/01/23 00:54:53;;;;;;;14.95;13.35;;;;;;;;;;2056362;28;20186;-59
2022/01/23 00:55:53;;;;;;;16.48;13.48;;;;;;;;;;2056759;28;20182;-59
2022/01/23 00:56:54;;;;;;;15.00;12.65;;;;;;;;;;2057203;28;20176;-58
2022/01/23 00:57:54;;;;;;;15.33;13.10;;;;;;;;;;2056041;28;20218;-58
2022/01/23 00:58:55;;;;;;;14.63;12.30;;;;;;;;;;2056682;28;20175;-59
2022/01/23 00:59:55;;;;;;;16.73;12.85;;;;;;;;;;2056718;28;20178;-58
2022/01/23 01:00:55;;;;;;;14.48;12.95;;;;;;;;;;2048492;28;20187;-58
2022/01/23 01:01:55;;;;;;;14.15;12.68;;;;;;;;;;2048984;29;20186;-58
2022/01/23 01:02:58;;;;;;;18.90;13.20;;;;;;;;;;2057238;28;20182;-57
2022/01/23 01:03:58;;;;;;;13.57;12.02;;;;;;;;;;2056497;28;20204;-59
2022/01/23 01:04:58;;;;;;;15.80;12.73;;;;;;;;;;2052740;28;20186;-58
2022/01/23 01:06:00;;;;;;;15.87;13.13;;;;;;;;;;2056064;28;20244;-59
2022/01/23 01:07:00;;;;;;;20.37;13.13;;;;;;;;;;2057393;28;20175;-58
2022/01/23 01:08:01;;;;;;;14.82;11.98;;;;;;;;;;2056622;28;20737;-62
2022/01/23 01:09:05;;;;;;;16.43;11.93;;;;;;;;;;2054510;28;20596;-59
2022/01/23 01:10:11;;;;;;;17.38;13.18;;;;;;;;;;2056734;28;20178;-58
2022/01/23 01:12:29;;;;;;;16.88;13.45;;;;;;;;;;2056760;28;20190;-58
2022/01/23 01:13:50;;;;;;;16.10;13.07;;;;;;;;;;2057638;28;20233;-61
2022/01/23 01:31:10;;;;;;;18.90;13.00;;;;;;;;;;2056681;28;20163;-59
2022/01/23 01:32:14;;;;;;;17.50;14.07;;;;;;;;;;2057447;28;20170;-58
2022/01/23 01:33:24;;;;;;;17.13;14.07;;;;;;;;;;2056782;28;20198;-58
2022/01/23 01:34:35;;;;;;;19.10;14.77;;;;;;;;;;2049810;28;20214;-59
2022/01/23 01:35:42;;;;;;;23.23;14.90;;;;;;;;;;2049486;28;20175;-57
2022/01/23 01:36:51;;;;;;;20.67;15.70;;;;;;;;;;2049217;28;20182;-58
2022/01/23 01:37:52;;;;;;;18.40;13.70;;;;;;;;;;2047154;28;20200;-59
2022/01/23 01:38:53;;;;;;;20.83;14.23;;;;;;;;;;2047439;29;20643;-63
2022/01/23 01:39:55;;;;;;;18.07;14.93;;;;;;;;;;2056284;28;20182;-59
2022/01/23 01:40:56;;;;;;;17.73;14.30;;;;;;;;;;2055655;28;20182;-59
2022/01/23 01:41:58;;;;;;;16.70;14.47;;;;;;;;;;2049093;28;20214;-58
2022/01/23 01:43:00;;;;;;;22.43;14.80;;;;;;;;;;2046047;28;20211;-59
2022/01/23 01:44:01;;;;;;;20.53;15.33;;;;;;;;;;2057054;28;20230;-60
2022/01/23 01:45:20;;;;;;;18.30;14.27;;;;;;;;;;2056127;28;20186;-59
2022/01/23 01:46:28;;;;;;;19.43;14.77;;;;;;;;;;2047050;28;20175;-59
2022/01/23 01:47:31;;;;;;;19.43;15.53;;;;;;;;;;2045027;29;20213;-58
2022/01/23 01:48:40;;;;;;;22.40;15.67;;;;;;;;;;2056653;28;20669;-57
2022/01/23 01:49:46;;;;;;;22.30;15.93;;;;;;;;;;2052233;28;20238;-58
2022/01/23 01:50:47;;;;;;;21.63;16.17;;;;;;;;;;2048455;28;20171;-57
2022/01/23 01:51:49;;;;;;;21.40;14.90;;;;;;;;;;2048908;28;20175;-59
2022/01/23 01:52:52;;;;;;;18.80;14.83;;;;;;;;;;2056372;28;20250;-58
2022/01/23 01:53:57;;;;;;;18.73;15.38;;;;;;;;;;2048627;28;20257;-59
2022/01/23 01:55:02;;;;;;;21.07;16.10;;;;;;;;;;2047895;28;20621;-55
2022/01/23 01:56:07;;;;;;;20.63;15.10;;;;;;;;;;2050907;28;20167;-60
2022/01/23 01:57:10;;;;;;;17.07;15.27;;;;;;;;;;2048514;28;20691;-60
2022/01/23 02:02:53;;;;;;;18.38;15.35;;;;;;;;;;2057465;28;20186;-59
2022/01/23 02:09:21;;;;;;;19.27;16.17;;;;;;;;;;2059454;28;20204;-59
2022/01/23 02:10:22;;;;;;;20.05;16.05;;;;;;;;;;2059095;28;20284;-60
2022/01/23 02:11:38;;;;;;;21.40;16.45;;;;;;;;;;2051411;28;20659;-59
2022/01/23 02:17:52;;;;;;;22.75;17.00;;;;;;;;;;2051011;28;20175;-53
2022/01/23 02:50:41;;;;;;;24.50;19.23;;;;;;;;;;2058010;28;20173;-60
2022/01/23 02:51:11;;;;;;;28.97;20.17;;;;;;;;;;2050481;28;20257;-56
2022/01/23 02:52:31;;;;;;;26.53;19.83;;;;;;;;;;2051996;28;20206;-60
2022/01/23 02:55:54;;;;;;;27.73;19.70;;;;;;;;;;2050514;28;20225;-59
2022/01/23 02:56:58;;;;;;;28.97;19.67;;;;;;;;;;2047968;28;20820;-58
2022/01/23 02:58:01;;;;;;;30.47;20.33;;;;;;;;;;2051261;28;20198;-59
2022/01/23 02:59:19;;;;;;;25.77;18.88;;;;;;;;;;2048848;28;20886;-60
2022/01/23 03:00:21;;;;;;;31.23;19.87;;;;;;;;;;2047004;28;20174;-57
2022/01/23 03:01:34;;;;;;;27.90;19.33;;;;;;;;;;2055695;28;20217;-55
2022/01/23 03:02:50;;;;;;;26.43;19.70;;;;;;;;;;2049911;28;20181;-58
2022/01/23 03:04:08;;;;;;;26.10;19.33;;;;;;;;;;2056478;28;20173;-58
2022/01/23 03:05:36;;;;;;;25.53;18.67;;;;;;;;;;2053364;28;20740;-61
2022/01/23 03:10:23;;;;;;;27.23;19.30;;;;;;;;;;2057875;28;20177;-59
2022/01/23 03:13:51;;;;;;;26.93;19.77;;;;;;;;;;2056262;28;20170;-52
2022/01/23 03:14:59;;;;;;;27.43;19.47;;;;;;;;;;2049318;28;20171;-60
2022/01/23 03:29:19;;;;;;;26.70;18.03;;;;;;;;;;2051435;28;20166;-59
2022/01/23 03:30:26;;;;;;;24.13;18.03;;;;;;;;;;2053196;28;20186;-59
2022/01/23 03:31:33;;;;;;;25.33;17.60;;;;;;;;;;2055818;28;20174;-59
2022/01/23 03:32:38;;;;;;;24.87;17.37;;;;;;;;;;2053132;28;20202;-58
2022/01/23 03:33:41;;;;;;;24.03;17.77;;;;;;;;;;2056336;28;20242;-54
2022/01/23 03:34:41;;;;;;;24.40;17.33;;;;;;;;;;2047650;28;20194;-59
2022/01/23 03:35:42;;;;;;;24.40;17.67;;;;;;;;;;2055798;28;20175;-58
2022/01/23 03:36:42;;;;;;;23.00;17.87;;;;;;;;;;2056534;28;20174;-57
2022/01/23 03:37:43;;;;;;;23.83;17.57;;;;;;;;;;2056332;28;20186;-58
2022/01/23 03:38:43;;;;;;;33.63;16.90;;;;;;;;;;2056554;28;20190;-59
2022/01/23 03:39:43;;;;;;;26.13;17.03;;;;;;;;;;2056376;28;20249;-58
2022/01/23 03:40:44;;;;;;;24.10;17.97;;;;;;;;;;2062744;28;20172;-56
2022/01/23 03:41:45;;;;;;;29.40;18.47;;;;;;;;;;2063167;28;20190;-59
2022/01/23 03:42:48;;;;;;;26.70;18.63;;;;;;;;;;2048177;28;20235;-57
2022/01/23 03:43:48;;;;;;;30.10;19.00;;;;;;;;;;2047696;28;20190;-57
2022/01/23 03:45:56;;;;;;;27.67;18.80;;;;;;;;;;2055799;28;20182;-57
2022/01/23 03:46:45;;;;;;;26.40;17.87;;;;;;;;;;2048430;28;20753;-59
2022/01/23 03:48:01;;;;;;;27.07;19.13;;;;;;;;;;2055232;28;20214;-59
2022/01/23 03:50:21;;;;;;;28.17;18.90;;;;;;;;;;2050160;28;20236;-59
2022/01/23 03:51:27;;;;;;;28.00;18.93;;;;;;;;;;2050324;28;20174;-58
2022/01/23 03:52:28;;;;;;;24.53;17.47;;;;;;;;;;2047758;28;20254;-58
2022/01/23 03:53:28;;;;;;;19.43;15.20;;;;;;;;;;2046891;29;20167;-57
2022/01/23 03:54:29;;;;;;;22.07;15.70;;;;;;;;;;2045544;29;20194;-57
2022/01/23 03:55:29;;;;;;;20.63;16.30;;;;;;;;;;2047572;29;20175;-58
2022/01/23 03:56:31;;;;;;;25.00;16.03;;;;;;;;;;2059236;28;20257;-56
2022/01/23 03:57:32;;;;;;;24.53;17.33;;;;;;;;;;2054501;28;20198;-59
2022/01/23 03:58:33;;;;;;;24.07;17.60;;;;;;;;;;2047841;28;20281;-59
2022/01/23 03:59:34;;;;;;;30.70;18.33;;;;;;;;;;2046958;29;20279;-59
2022/01/23 04:00:35;;;;;;;26.63;17.07;;;;;;;;;;2048408;28;20167;-55
2022/01/23 04:01:36;;;;;;;23.43;16.13;;;;;;;;;;2047548;28;20176;-58
2022/01/23 04:02:37;;;;;;;22.37;16.10;;;;;;;;;;2055583;28;20175;-57
2022/01/23 04:03:39;;;;;;;24.93;16.30;;;;;;;;;;2055117;28;20618;-60
2022/01/23 04:04:42;;;;;;;25.87;15.97;;;;;;;;;;2048407;28;20673;-55
2022/01/23 04:05:50;;;;;;;21.67;15.43;;;;;;;;;;2041018;28;20302;-58
2022/01/23 04:06:50;;;;;;;19.50;14.93;;;;;;;;;;2044289;28;20653;-58
2022/01/23 04:07:50;;;;;;;22.37;14.80;;;;;;;;;;2052494;28;20206;-57
2022/01/23 04:08:51;;;;;;;19.27;14.73;;;;;;;;;;2050065;28;20175;-57
2022/01/23 04:09:52;;;;;;;20.23;15.00;;;;;;;;;;2047860;29;20175;-56
2022/01/23 04:10:52;;;;;;;24.47;14.47;;;;;;;;;;2054718;28;20182;-60
2022/01/23 04:11:53;;;;;;;22.43;15.57;;;;;;;;;;2040567;29;20179;-59
2022/01/23 04:13:09;;;;;;;22.83;14.40;;;;;;;;;;2046583;28;20210;-59
2022/01/23 04:14:11;;;;;;;23.93;15.10;;;;;;;;;;2046259;28;20257;-59
2022/01/23 04:20:27;;;;;;;20.37;14.83;;;;;;;;;;2050347;28;20160;-57
2022/01/23 04:31:41;;;;;;;24.50;15.03;;;;;;;;;;2043960;28;20178;-60
2022/01/23 04:32:06;;;;;;;25.63;16.27;;;;;;;;;;2048994;28;20587;-60
2022/01/23 04:33:29;;;;;;;21.63;15.43;;;;;;;;;;2055046;28;20229;-54
2022/01/23 04:34:52;;;;;;;25.00;16.57;;;;;;;;;;2049702;28;20910;-58
2022/01/23 04:45:31;;;;;;;20.13;14.00;;;;;;;;;;2057390;28;20158;-61
2022/01/23 04:46:55;;;;;;;19.07;13.70;;;;;;;;;;2056876;28;20193;-61
2022/01/23 04:59:40;;;;;;;19.80;13.70;;;;;;;;;;2049498;28;20170;-61
2022/01/23 05:00:54;;;;;;;21.73;14.33;;;;;;;;;;2057478;28;20198;-59
2022/01/23 05:02:28;;;;;;;21.17;15.10;;;;;;;;;;2048328;28;20182;-61
2022/01/23 05:05:30;;;;;;;20.97;14.67;;;;;;;;;;2062028;28;20171;-60
2022/01/23 05:06:47;;;;;;;18.77;15.00;;;;;;;;;;2056539;28;20182;-58
2022/01/23 05:07:52;;;;;;;21.03;14.73;;;;;;;;;;2056543;28;20178;-53
2022/01/23 05:09:13;;;;;;;22.00;14.90;;;;;;;;;;2048912;28;20714;-58
2022/01/23 05:10:16;;;;;;;21.60;14.83;;;;;;;;;;2049016;28;20214;-59
2022/01/23 05:11:35;;;;;;;23.30;16.07;;;;;;;;;;2050268;28;20305;-58
2022/01/23 05:12:45;;;;;;;22.80;16.07;;;;;;;;;;2050230;28;20230;-59
2022/01/23 05:13:45;;;;;;;25.53;15.80;;;;;;;;;;2049418;28;20644;-52
2022/01/23 05:14:47;;;;;;;21.63;15.83;;;;;;;;;;2048750;29;20179;-57
2022/01/23 05:15:47;;;;;;;21.90;15.50;;;;;;;;;;2054707;28;20181;-58
2022/01/23 05:16:47;;;;;;;19.27;16.23;;;;;;;;;;2065028;28;20193;-59
2022/01/23 05:17:48;;;;;;;19.13;14.20;;;;;;;;;;2063527;28;20173;-58
2022/01/23 05:18:49;;;;;;;20.43;15.47;;;;;;;;;;2056909;28;20178;-59
2022/01/23 05:19:49;;;;;;;20.73;16.00;;;;;;;;;;2056976;28;20269;-59
2022/01/23 05:20:58;;;;;;;18.60;15.03;;;;;;;;;;2057626;28;20166;-57
2022/01/23 05:22:22;;;;;;;24.33;15.13;;;;;;;;;;2051893;28;20198;-58
2022/01/23 05:23:23;;;;;;;19.87;15.50;;;;;;;;;;2042654;29;20182;-58
2022/01/23 05:24:27;;;;;;;21.90;15.50;;;;;;;;;;2044112;29;20183;-60
2022/01/23 05:25:30;;;;;;;23.63;16.17;;;;;;;;;;2057969;28;20630;-59
2022/01/23 05:26:34;;;;;;;19.27;15.80;;;;;;;;;;2050132;28;20552;-58
2022/01/23 05:27:34;;;;;;;20.93;15.73;;;;;;;;;;2050480;28;20627;-57
2022/01/23 05:28:34;;;;;;;26.20;17.60;;;;;;;;;;2065576;28;20201;-60
2022/01/23 05:29:35;;;;;;;22.87;16.47;;;;;;;;;;2058682;28;20544;-54
2022/01/23 05:30:36;;;;;;;25.20;16.80;;;;;;;;;;2057381;28;20170;-58
2022/01/23 05:31:37;;;;;;;21.50;16.43;;;;;;;;;;2056948;28;20193;-59
2022/01/23 05:32:41;;;;;;;26.23;17.37;;;;;;;;;;2056990;28;20182;-58
2022/01/23 05:33:42;;;;;;;23.63;17.67;;;;;;;;;;2049427;28;20229;-60
2022/01/23 05:34:44;;;;;;;25.40;19.00;;;;;;;;;;2049938;29;20178;-61
2022/01/23 05:35:53;;;;;;;25.30;18.67;;;;;;;;;;2050613;28;20189;-58
2022/01/23 05:36:54;;;;;;;25.17;16.80;;;;;;;;;;2049068;28;20197;-60
2022/01/23 05:37:55;;;;;;;33.03;19.07;;;;;;;;;;2046661;29;20175;-58
2022/01/23 05:38:57;;;;;;;24.67;17.90;;;;;;;;;;2050409;28;20177;-59
2022/01/23 05:39:57;;;;;;;29.33;19.57;;;;;;;;;;2046639;28;20175;-60
2022/01/23 05:40:58;;;;;;;29.90;17.75;;;;;;;;;;2055193;28;20258;-55
2022/01/23 05:42:09;;;;;;;27.23;19.07;;;;;;;;;;2057374;28;20175;-59
2022/01/23 05:43:09;;;;;;;29.00;19.80;;;;;;;;;;2051001;28;20169;-52
2022/01/23 05:44:11;;;;;;;27.30;19.30;;;;;;;;;;2049724;28;20202;-59
2022/01/23 05:45:12;;;;;;;28.47;19.63;;;;;;;;;;2048456;28;20668;-58
2022/01/23 05:46:31;;;;;;;28.77;19.00;;;;;;;;;;2055362;28;20178;-62
2022/01/23 05:47:36;;;;;;;28.67;19.10;;;;;;;;;;2056252;28;20709;-57
2022/01/23 05:48:50;;;;;;;25.43;18.47;;;;;;;;;;2044044;28;20190;-60
2022/01/23 05:50:09;;;;;;;25.27;17.37;;;;;;;;;;2051701;28;20639;-61
2022/01/23 05:51:12;;;;;;;27.93;19.60;;;;;;;;;;2056629;28;20230;-61
2022/01/23 05:52:15;;;;;;;24.63;18.77;;;;;;;;;;2057312;28;20617;-57
2022/01/23 05:53:31;;;;;;;25.80;18.63;;;;;;;;;;2052250;28;20170;-56
2022/01/23 05:55:06;;;;;;;29.57;19.23;;;;;;;;;;2051461;28;20186;-58
2022/01/23 05:56:20;;;;;;;34.27;20.03;;;;;;;;;;2052740;28;20262;-55
2022/01/23 05:57:47;;;;;;;26.57;18.50;;;;;;;;;;2050293;28;20198;-58
2022/01/23 05:58:58;;;;;;;27.83;19.07;;;;;;;;;;2050728;28;20178;-58
2022/01/23 06:00:03;;;;;;;28.57;20.03;;;;;;;;;;2049506;28;20690;-57
2022/01/23 06:01:05;;;;;;;23.63;18.47;;;;;;;;;;2052199;28;20270;-60
2022/01/23 06:02:06;;;;;;;27.50;19.33;;;;;;;;;;2055209;28;20210;-59
2022/01/23 06:03:11;;;;;;;30.23;19.87;;;;;;;;;;2049989;28;20520;-55
2022/01/23 06:04:17;;;;;;;31.13;20.77;;;;;;;;;;2049725;28;20167;-57
2022/01/23 06:05:21;;;;;;;34.60;22.07;;;;;;;;;;2049772;28;20171;-54
2022/01/23 06:06:33;;;;;;;29.23;20.23;;;;;;;;;;2051494;28;20327;-59
2022/01/23 06:07:34;;;;;;;28.40;19.70;;;;;;;;;;2056334;28;20202;-56
2022/01/23 06:08:38;;;;;;;24.87;18.00;;;;;;;;;;2057544;28;20229;-52
2022/01/23 06:09:40;;;;;;;28.77;19.13;;;;;;;;;;2043228;29;20190;-54
2022/01/23 06:10:55;;;;;;;25.53;18.23;;;;;;;;;;2056363;28;20178;-56
2022/01/23 06:12:07;;;;;;;29.03;18.67;;;;;;;;;;2053037;28;20174;-57
2022/01/23 06:13:08;;;;;;;26.27;17.63;;;;;;;;;;2049132;29;20655;-60
2022/01/23 06:14:09;;;;;;;23.37;16.70;;;;;;;;;;2055243;28;20240;-57
2022/01/23 06:15:09;;;;;;;25.93;17.27;;;;;;;;;;2057009;28;20179;-57
2022/01/23 06:16:10;;;;;;;26.57;18.50;;;;;;;;;;2056360;28;20178;-59
2022/01/23 06:17:12;;;;;;;28.07;18.83;;;;;;;;;;2056732;28;20647;-61
2022/01/23 06:18:35;;;;;;;26.97;17.30;;;;;;;;;;2056480;28;20698;-57
2022/01/23 06:19:54;;;;;;;28.83;17.83;;;;;;;;;;2051204;28;20174;-58
2022/01/23 06:21:24;;;;;;;26.60;17.20;;;;;;;;;;2057085;28;20551;-61
2022/01/23 06:22:47;;;;;;;23.50;16.50;;;;;;;;;;2056097;28;20912;-53
2022/01/23 06:24:28;;;;;;;25.57;14.80;;;;;;;;;;2056025;28;20190;-57
2022/01/23 06:25:57;;;;;;;21.97;15.50;;;;;;;;;;2063840;28;20181;-60
2022/01/23 06:27:03;;;;;;;25.33;16.07;;;;;;;;;;2062806;28;20190;-55
2022/01/23 06:28:06;;;;;;;22.70;15.90;;;;;;;;;;2048382;28;20187;-56
2022/01/23 06:29:07;;;;;;;23.40;16.43;;;;;;;;;;2046834;28;20227;-59
2022/01/23 06:30:08;;;;;;;20.23;15.57;;;;;;;;;;2056416;28;20201;-57
2022/01/23 06:31:09;;;;;;;21.93;15.93;;;;;;;;;;2048386;28;20299;-57
2022/01/23 06:32:10;;;;;;;22.73;15.93;;;;;;;;;;2045862;28;20597;-59
2022/01/23 06:33:11;;;;;;;24.00;16.03;;;;;;;;;;2063720;28;20186;-57
2022/01/23 06:34:11;;;;;;;21.37;15.80;;;;;;;;;;2055638;28;20571;-58
2022/01/23 06:35:11;;;;;;;20.73;15.57;;;;;;;;;;2056094;28;20206;-58
2022/01/23 06:36:13;;;;;;;20.50;14.97;;;;;;;;;;2055964;28;20170;-58
2022/01/23 06:37:13;;;;;;;20.80;14.80;;;;;;;;;;2053050;28;20654;-54
2022/01/23 06:38:14;;;;;;;20.70;14.80;;;;;;;;;;2056109;28;20217;-59
2022/01/23 06:39:14;;;;;;;22.33;16.20;;;;;;;;;;2053046;28;20237;-61
2022/01/23 06:40:16;;;;;;;19.37;14.67;;;;;;;;;;2056258;28;20162;-55
2022/01/23 06:41:35;;;;;;;24.00;15.20;;;;;;;;;;2057011;28;20625;-55
2022/01/23 06:42:46;;;;;;;19.37;14.10;;;;;;;;;;2048972;28;20262;-57
2022/01/23 06:43:59;;;;;;;22.47;15.20;;;;;;;;;;2055547;28;20214;-57
2022/01/23 06:45:06;;;;;;;26.90;15.93;;;;;;;;;;2058905;28;20669;-58
2022/01/23 06:46:06;;;;;;;20.97;15.47;;;;;;;;;;2055636;28;20205;-61
2022/01/23 06:47:07;;;;;;;23.90;14.27;;;;;;;;;;2047043;28;20175;-59
2022/01/23 06:48:09;;;;;;;19.30;14.47;;;;;;;;;;2051418;28;20728;-59
2022/01/23 06:49:10;;;;;;;19.63;15.80;;;;;;;;;;2055609;28;20162;-56
2022/01/23 06:50:12;;;;;;;19.90;14.87;;;;;;;;;;2047882;28;20175;-56
2022/01/23 06:51:12;;;;;;;18.27;14.70;;;;;;;;;;2042388;29;20176;-56
2022/01/23 06:52:12;;;;;;;18.80;13.70;;;;;;;;;;2044593;29;20251;-58
2022/01/23 06:53:18;;;;;;;19.27;14.97;;;;;;;;;;2048629;28;20182;-49
2022/01/23 06:54:19;;;;;;;21.43;13.03;;;;;;;;;;2049037;28;20171;-57
2022/01/23 06:55:19;;;;;;;18.70;14.83;;;;;;;;;;2039874;29;20204;-56
2022/01/23 06:56:24;;;;;;;19.63;14.47;;;;;;;;;;2034845;28;20180;-57
2022/01/23 06:57:24;;;;;;;19.90;14.60;;;;;;;;;;2048230;28;20179;-58
2022/01/23 06:58:27;;;;;;;19.83;14.17;;;;;;;;;;2056441;28;20304;-59
2022/01/23 06:59:28;;;;;;;20.87;15.00;;;;;;;;;;2048220;29;20178;-57
2022/01/23 07:00:36;;;;;;;18.93;13.77;;;;;;;;;;2049838;28;20285;-58
2022/01/23 07:01:53;;;;;;;19.10;13.80;;;;;;;;;;2049904;28;20178;-58
2022/01/23 07:02:53;;;;;;;18.43;13.83;;;;;;;;;;2056375;28;20186;-58
2022/01/23 07:04:12;;;;;;;21.90;15.07;;;;;;;;;;2057374;28;20154;-54
2022/01/23 07:05:23;;;;;;;19.93;15.03;;;;;;;;;;2056296;28;20182;-59
2022/01/23 07:06:34;;;;;;;19.27;14.53;;;;;;;;;;2049624;28;20565;-61
2022/01/23 07:07:54;;;;;;;24.03;15.60;;;;;;;;;;2050015;28;20190;-55
2022/01/23 07:09:15;;;;;;;21.70;16.30;;;;;;;;;;2056855;28;20186;-59
2022/01/23 07:10:34;;;;;;;23.50;15.27;;;;;;;;;;2056705;28;20225;-54
2022/01/23 07:11:50;;;;;;;23.13;15.27;;;;;;;;;;2048741;28;20167;-59
2022/01/23 07:13:26;;;;;;;23.57;14.13;;;;;;;;;;2048680;29;20198;-54
2022/01/23 07:14:58;;;;;;;19.93;14.67;;;;;;;;;;2048886;28;20262;-57
2022/01/23 07:16:21;;;;;;;21.80;14.70;;;;;;;;;;2053825;28;20209;-58
2022/01/23 07:17:47;;;;;;;20.53;14.40;;;;;;;;;;2056523;28;20544;-56
2022/01/23 07:19:03;;;;;;;24.63;15.93;;;;;;;;;;2056531;28;20611;-57
2022/01/23 07:20:11;;;;;;;19.80;14.67;;;;;;;;;;2048426;29;20191;-59
2022/01/23 07:21:12;;;;;;;21.10;15.20;;;;;;;;;;2041652;28;20179;-60
2022/01/23 07:22:17;;;;;;;22.03;14.53;;;;;;;;;;2049031;28;20183;-61
2022/01/23 07:23:22;;;;;;;19.90;14.03;;;;;;;;;;2056706;28;20171;-54
2022/01/23 07:24:23;;;;;;;19.77;14.43;;;;;;;;;;2056096;28;20166;-60
2022/01/23 07:25:23;;;;;;;22.33;15.63;;;;;;;;;;2056577;28;20530;-58
2022/01/23 07:26:25;;;;;;;21.53;14.83;;;;;;;;;;2056649;28;20186;-58
2022/01/23 07:27:47;;;;;;;18.90;14.40;;;;;;;;;;2049165;28;20257;-55
2022/01/23 07:28:48;;;;;;;20.17;14.27;;;;;;;;;;2050718;28;20217;-60
2022/01/23 07:29:53;;;;;;;19.07;14.47;;;;;;;;;;2056450;28;20241;-58
2022/01/23 07:30:59;;;;;;;20.33;14.17;;;;;;;;;;2049170;28;20195;-58
2022/01/23 07:32:06;;;;;;;20.30;14.03;;;;;;;;;;2049023;28;20619;-59
2022/01/23 07:33:06;;;;;;;17.97;13.60;;;;;;;;;;2049003;28;20173;-57
2022/01/23 07:34:08;;;;;;;18.03;13.70;;;;;;;;;;2054625;28;20178;-58
2022/01/23 07:35:10;;;;;;;18.80;13.80;;;;;;;;;;2052085;28;20194;-57
2022/01/23 07:36:10;;;;;;;17.70;13.70;;;;;;;;;;2047983;28;20175;-52
2022/01/23 07:37:12;;;;;;;21.93;14.77;;;;;;;;;;2056055;28;20182;-56
2022/01/23 07:38:31;;;;;;;21.03;14.17;;;;;;;;;;2055963;28;20218;-56
2022/01/23 07:39:43;;;;;;;20.03;14.47;;;;;;;;;;2055707;28;20282;-58
2022/01/23 07:40:54;;;;;;;19.03;13.40;;;;;;;;;;2049408;28;20274;-56
2022/01/23 07:42:13;;;;;;;23.07;13.60;;;;;;;;;;2046904;28;20261;-59
2022/01/23 07:43:39;;;;;;;18.63;14.30;;;;;;;;;;2053580;28;20186;-58
2022/01/23 07:44:58;;;;;;;17.20;13.20;;;;;;;;;;2056813;28;20577;-56
2022/01/23 07:46:10;;;;;;;18.30;12.83;;;;;;;;;;2057593;28;20155;-61
2022/01/23 07:47:33;;;;;;;26.47;15.43;;;;;;;;;;2047546;29;20663;-58
2022/01/23 07:48:52;;;;;;;20.93;14.83;;;;;;;;;;2046059;29;20179;-61
2022/01/23 07:50:14;;;;;;;21.30;14.20;;;;;;;;;;2041470;29;20194;-60
2022/01/23 07:51:40;;;;;;;18.30;13.50;;;;;;;;;;2057110;28;20272;-58
2022/01/23 07:52:59;;;;;;;20.90;15.03;;;;;;;;;;2056675;28;20170;-59
2022/01/23 07:54:15;;;;;;;20.27;14.57;;;;;;;;;;2046207;29;20186;-57
2022/01/23 07:55:21;;;;;;;23.93;15.57;;;;;;;;;;2040967;29;20176;-60
2022/01/23 07:56:42;;;;;;;21.53;14.87;;;;;;;;;;2051812;28;20162;-58
2022/01/23 07:58:18;;;;;;;21.80;14.53;;;;;;;;;;2055034;28;20206;-60
2022/01/23 07:59:39;;;;;;;20.27;14.30;;;;;;;;;;2043362;29;20170;-58
2022/01/23 08:01:15;;;;;;;21.83;14.87;;;;;;;;;;2055490;28;20180;-60
2022/01/23 08:02:35;;;;;;;21.20;14.53;;;;;;;;;;2055828;28;20237;-57
2022/01/23 08:04:01;;;;;;;21.77;15.67;;;;;;;;;;2054589;28;20522;-61
2022/01/23 08:05:03;;;;;;;23.73;16.30;;;;;;;;;;2056209;28;20678;-59
2022/01/23 08:06:05;;;;;;;22.37;16.17;;;;;;;;;;2056081;28;20189;-55
2022/01/23 08:08:38;;;;;;;21.47;15.30;;;;;;;;;;2051157;28;20685;-57
2022/01/23 08:09:39;;;;;;;24.40;16.20;;;;;;;;;;2040598;29;20258;-60
2022/01/23 08:10:40;;;;;;;22.60;15.60;;;;;;;;;;2048212;28;20704;-56
2022/01/23 08:11:40;;;;;;;20.73;15.33;;;;;;;;;;2056334;28;20269;-59
2022/01/23 08:12:41;;;;;;;20.63;15.43;;;;;;;;;;2056451;28;20174;-58
2022/01/23 08:13:41;;;;;;;21.83;16.93;;;;;;;;;;2057133;28;20238;-56
2022/01/23 08:14:42;;;;;;;22.40;16.27;;;;;;;;;;2055206;28;20631;-60
2022/01/23 08:15:43;;;;;;;21.33;15.73;;;;;;;;;;2042033;29;20179;-53
2022/01/23 08:16:43;;;;;;;20.67;15.50;;;;;;;;;;2048221;28;20187;-60
2022/01/23 08:17:44;;;;;;;19.30;15.47;;;;;;;;;;2058171;28;20170;-59
2022/01/23 08:18:44;;;;;;;21.27;14.73;;;;;;;;;;2058406;28;20213;-56
2022/01/23 08:19:44;;;;;;;20.23;16.23;;;;;;;;;;2057905;28;20174;-58
2022/01/23 08:20:45;;;;;;;22.02;16.67;;;;;;;;;;2056984;28;20181;-61
2022/01/23 08:21:45;;;;;;;21.43;15.80;;;;;;;;;;2058201;28;20326;-62
2022/01/23 08:22:45;;;;;;;21.03;15.67;;;;;;;;;;2049899;28;20195;-61
2022/01/23 08:23:45;;;;;;;21.30;15.10;;;;;;;;;;2057123;28;20273;-56
2022/01/23 08:24:46;;;;;;;21.30;15.37;;;;;;;;;;2057233;28;20278;-61
2022/01/23 08:25:46;;;;;;;20.30;15.40;;;;;;;;;;2057035;28;20170;-63
2022/01/23 08:26:46;;;;;;;18.27;15.00;;;;;;;;;;2057280;28;20269;-60
2022/01/23 08:27:47;;;;;;;20.27;15.67;;;;;;;;;;2056693;28;20209;-61
2022/01/23 08:28:47;;;;;;;18.63;14.73;;;;;;;;;;2055725;28;20178;-58
2022/01/23 08:29:47;;;;;;;21.03;15.83;;;;;;;;;;2053787;28;20182;-59
2022/01/23 08:30:47;;;;;;;22.57;15.70;;;;;;;;;;2056392;28;20690;-61
2022/01/23 08:31:48;;;;;;;17.83;15.00;;;;;;;;;;2054351;28;20186;-59
2022/01/23 08:32:48;;;;;;;20.00;15.38;;;;;;;;;;2054020;28;20187;-59
2022/01/23 08:33:48;;;;;;;19.50;15.43;;;;;;;;;;2058321;28;20178;-61
2022/01/23 08:34:49;;;;;;;22.97;15.70;;;;;;;;;;2054060;28;20178;-60
2022/01/23 08:35:49;;;;;;;21.93;16.47;;;;;;;;;;2058901;28;20226;-58
2022/01/23 08:36:49;;;;;;;23.88;17.02;;;;;;;;;;2058923;28;20244;-63
2022/01/23 08:37:52;;;;;;;22.97;16.00;;;;;;;;;;2056433;28;20202;-62
2022/01/23 08:38:52;;;;;;;18.97;14.73;;;;;;;;;;2058942;28;20213;-62
2022/01/23 08:39:53;;;;;;;19.30;14.48;;;;;;;;;;2054451;28;20182;-62
2022/01/23 08:42:15;;;;;;;18.47;15.23;;;;;;;;;;2053664;28;20646;-58
2022/01/23 08:43:16;;;;;;;19.17;15.18;;;;;;;;;;2062937;28;20220;-61